sensor_id;sensor_type;location;lat;lon;timestamp;temperature;humidity
59128;DHT22;44912;52.754;5.994;2023-06-04T00:00:41;12.50;99.90
59128;DHT22;44912;52.754;5.994;2023-06-04T00:03:07;12.50;99.90
59128;DHT22;44912;52.754;5.994;2023-06-04T00:05:32;12.50;99.90
59128;DHT22;44912;52.754;5.994;2023-06-04T00:07:58;12.40;99.90
59128;DHT22;44912;52.754;5.994;2023-06-04T00:10:23;12.30;99.90
59128;DHT22;44912;52.754;5.994;2023-06-04T00:12:49;12.30;99.90
59128;DHT22;44912;52.754;5.994;2023-06-04T00:15:15;12.30;99.90
59128;DHT22;44912;52.754;5.994;2023-06-04T00:17:42;12.30;99.90
59128;DHT22;44912;52.754;5.994;2023-06-04T00:20:08;12.20;99.90
59128;DHT22;44912;52.754;5.994;2023-06-04T00:22:34;12.20;99.90
59128;DHT22;44912;52.754;5.994;2023-06-04T00:24:59;12.20;99.90
59128;DHT22;44912;52.754;5.994;2023-06-04T00:27:25;12.10;99.90
59128;DHT22;44912;52.754;5.994;2023-06-04T00:29:50;12.00;99.90
59128;DHT22;44912;52.754;5.994;2023-06-04T00:32:16;12.00;99.90
59128;DHT22;44912;52.754;5.994;2023-06-04T00:34:41;11.90;99.90
59128;DHT22;44912;52.754;5.994;2023-06-04T00:37:07;11.90;99.90
59128;DHT22;44912;52.754;5.994;2023-06-04T00:39:32;11.80;99.90
59128;DHT22;44912;52.754;5.994;2023-06-04T00:42:00;11.70;99.90
59128;DHT22;44912;52.754;5.994;2023-06-04T00:44:25;11.60;99.90
59128;DHT22;44912;52.754;5.994;2023-06-04T00:46:52;11.50;99.90
59128;DHT22;44912;52.754;5.994;2023-06-04T00:49:19;11.60;99.90
59128;DHT22;44912;52.754;5.994;2023-06-04T00:51:45;11.60;99.90
59128;DHT22;44912;52.754;5.994;2023-06-04T00:54:12;11.50;99.90
59128;DHT22;44912;52.754;5.994;2023-06-04T00:56:38;11.50;99.90
59128;DHT22;44912;52.754;5.994;2023-06-04T00:59:06;11.50;99.90
59128;DHT22;44912;52.754;5.994;2023-06-04T01:01:45;11.50;99.90
59128;DHT22;44912;52.754;5.994;2023-06-04T01:04:41;11.50;99.90
59128;DHT22;44912;52.754;5.994;2023-06-04T01:07:10;11.50;99.90
59128;DHT22;44912;52.754;5.994;2023-06-04T01:09:37;11.40;99.90
59128;DHT22;44912;52.754;5.994;2023-06-04T01:12:04;11.40;99.90
59128;DHT22;44912;52.754;5.994;2023-06-04T01:14:30;11.40;99.90
59128;DHT22;44912;52.754;5.994;2023-06-04T01:17:15;11.40;99.90
59128;DHT22;44912;52.754;5.994;2023-06-04T01:19:57;11.40;99.90
59128;DHT22;44912;52.754;5.994;2023-06-04T01:22:31;11.40;99.90
59128;DHT22;44912;52.754;5.994;2023-06-04T01:25:05;11.40;99.90
59128;DHT22;44912;52.754;5.994;2023-06-04T01:27:35;11.30;99.90
59128;DHT22;44912;52.754;5.994;2023-06-04T01:30:01;11.30;99.90
59128;DHT22;44912;52.754;5.994;2023-06-04T01:32:28;11.30;99.90
59128;DHT22;44912;52.754;5.994;2023-06-04T01:34:55;11.30;99.90
59128;DHT22;44912;52.754;5.994;2023-06-04T01:37:20;11.30;99.90
59128;DHT22;44912;52.754;5.994;2023-06-04T01:39:46;11.30;99.90
59128;DHT22;44912;52.754;5.994;2023-06-04T01:42:11;11.30;99.90
59128;DHT22;44912;52.754;5.994;2023-06-04T01:44:37;11.20;99.90
59128;DHT22;44912;52.754;5.994;2023-06-04T01:47:02;11.20;99.90
59128;DHT22;44912;52.754;5.994;2023-06-04T01:49:28;11.10;99.90
59128;DHT22;44912;52.754;5.994;2023-06-04T01:51:53;11.10;99.90
59128;DHT22;44912;52.754;5.994;2023-06-04T01:54:19;11.10;99.90
59128;DHT22;44912;52.754;5.994;2023-06-04T01:56:45;11.10;99.90
59128;DHT22;44912;52.754;5.994;2023-06-04T01:59:11;11.20;99.90
59128;DHT22;44912;52.754;5.994;2023-06-04T02:01:37;11.10;99.90
59128;DHT22;44912;52.754;5.994;2023-06-04T02:04:03;11.10;99.90
59128;DHT22;44912;52.754;5.994;2023-06-04T02:06:29;11.00;99.90
59128;DHT22;44912;52.754;5.994;2023-06-04T02:08:55;11.00;99.90
59128;DHT22;44912;52.754;5.994;2023-06-04T02:11:21;11.00;99.90
59128;DHT22;44912;52.754;5.994;2023-06-04T02:13:47;11.00;99.90
59128;DHT22;44912;52.754;5.994;2023-06-04T02:16:13;11.10;99.90
59128;DHT22;44912;52.754;5.994;2023-06-04T02:18:38;11.00;99.90
59128;DHT22;44912;52.754;5.994;2023-06-04T02:21:04;11.00;99.90
59128;DHT22;44912;52.754;5.994;2023-06-04T02:23:29;11.00;99.90
59128;DHT22;44912;52.754;5.994;2023-06-04T02:25:55;11.00;99.90
59128;DHT22;44912;52.754;5.994;2023-06-04T02:28:21;11.00;99.90
59128;DHT22;44912;52.754;5.994;2023-06-04T02:30:46;11.00;99.90
59128;DHT22;44912;52.754;5.994;2023-06-04T02:33:12;10.90;99.90
59128;DHT22;44912;52.754;5.994;2023-06-04T02:35:38;10.90;99.90
59128;DHT22;44912;52.754;5.994;2023-06-04T02:38:04;10.80;99.90
59128;DHT22;44912;52.754;5.994;2023-06-04T02:40:30;10.80;99.90
59128;DHT22;44912;52.754;5.994;2023-06-04T02:42:56;10.70;99.90
59128;DHT22;44912;52.754;5.994;2023-06-04T02:45:22;10.70;99.90
59128;DHT22;44912;52.754;5.994;2023-06-04T02:47:48;10.80;99.90
59128;DHT22;44912;52.754;5.994;2023-06-04T02:50:14;10.70;99.90
59128;DHT22;44912;52.754;5.994;2023-06-04T02:52:43;10.70;99.90
59128;DHT22;44912;52.754;5.994;2023-06-04T02:55:09;10.70;99.90
59128;DHT22;44912;52.754;5.994;2023-06-04T02:57:38;10.70;99.90
59128;DHT22;44912;52.754;5.994;2023-06-04T03:00:04;10.70;99.90
59128;DHT22;44912;52.754;5.994;2023-06-04T03:02:44;10.70;99.90
59128;DHT22;44912;52.754;5.994;2023-06-04T03:05:11;10.70;99.90
59128;DHT22;44912;52.754;5.994;2023-06-04T03:07:39;10.60;99.90
59128;DHT22;44912;52.754;5.994;2023-06-04T03:10:07;10.60;99.90
59128;DHT22;44912;52.754;5.994;2023-06-04T03:12:32;10.60;99.90
59128;DHT22;44912;52.754;5.994;2023-06-04T03:14:58;10.60;99.90
59128;DHT22;44912;52.754;5.994;2023-06-04T03:17:25;10.60;99.90
59128;DHT22;44912;52.754;5.994;2023-06-04T03:19:51;10.60;99.90
59128;DHT22;44912;52.754;5.994;2023-06-04T03:22:16;10.50;99.90
59128;DHT22;44912;52.754;5.994;2023-06-04T03:24:42;10.50;99.90
59128;DHT22;44912;52.754;5.994;2023-06-04T03:27:08;10.50;99.90
59128;DHT22;44912;52.754;5.994;2023-06-04T03:29:35;10.50;99.90
59128;DHT22;44912;52.754;5.994;2023-06-04T03:32:01;10.40;99.90
59128;DHT22;44912;52.754;5.994;2023-06-04T03:34:27;10.40;99.90
59128;DHT22;44912;52.754;5.994;2023-06-04T03:36:55;10.40;99.90
59128;DHT22;44912;52.754;5.994;2023-06-04T03:39:21;10.40;99.90
59128;DHT22;44912;52.754;5.994;2023-06-04T03:41:47;10.40;99.90
59128;DHT22;44912;52.754;5.994;2023-06-04T03:44:14;10.40;99.90
59128;DHT22;44912;52.754;5.994;2023-06-04T03:46:40;10.40;99.90
59128;DHT22;44912;52.754;5.994;2023-06-04T03:49:06;10.40;99.90
59128;DHT22;44912;52.754;5.994;2023-06-04T03:51:31;10.30;99.90
59128;DHT22;44912;52.754;5.994;2023-06-04T03:53:58;10.30;99.90
59128;DHT22;44912;52.754;5.994;2023-06-04T03:56:24;10.40;99.90
59128;DHT22;44912;52.754;5.994;2023-06-04T03:58:52;10.40;99.90
59128;DHT22;44912;52.754;5.994;2023-06-04T04:01:18;10.40;99.90
59128;DHT22;44912;52.754;5.994;2023-06-04T04:03:44;10.40;99.90
59128;DHT22;44912;52.754;5.994;2023-06-04T04:06:13;10.50;99.90
59128;DHT22;44912;52.754;5.994;2023-06-04T04:08:40;10.50;99.90
59128;DHT22;44912;52.754;5.994;2023-06-04T04:11:11;10.50;99.90
59128;DHT22;44912;52.754;5.994;2023-06-04T04:13:37;10.60;99.90
59128;DHT22;44912;52.754;5.994;2023-06-04T04:16:03;10.70;99.90
59128;DHT22;44912;52.754;5.994;2023-06-04T04:18:32;10.70;99.90
59128;DHT22;44912;52.754;5.994;2023-06-04T04:20:58;10.70;99.90
59128;DHT22;44912;52.754;5.994;2023-06-04T04:23:24;10.80;99.90
59128;DHT22;44912;52.754;5.994;2023-06-04T04:25:50;10.80;99.90
59128;DHT22;44912;52.754;5.994;2023-06-04T04:28:16;10.80;99.90
59128;DHT22;44912;52.754;5.994;2023-06-04T04:30:43;10.90;99.90
59128;DHT22;44912;52.754;5.994;2023-06-04T04:33:10;10.90;99.90
59128;DHT22;44912;52.754;5.994;2023-06-04T04:35:36;11.00;99.90
59128;DHT22;44912;52.754;5.994;2023-06-04T04:38:01;11.00;99.90
59128;DHT22;44912;52.754;5.994;2023-06-04T04:40:30;11.00;99.90
59128;DHT22;44912;52.754;5.994;2023-06-04T04:42:56;11.10;99.90
59128;DHT22;44912;52.754;5.994;2023-06-04T04:45:22;11.10;99.90
59128;DHT22;44912;52.754;5.994;2023-06-04T04:47:47;11.20;99.90
59128;DHT22;44912;52.754;5.994;2023-06-04T04:50:13;11.30;99.90
59128;DHT22;44912;52.754;5.994;2023-06-04T04:52:39;11.30;99.90
59128;DHT22;44912;52.754;5.994;2023-06-04T04:55:05;11.40;99.90
59128;DHT22;44912;52.754;5.994;2023-06-04T04:57:30;11.50;99.90
59128;DHT22;44912;52.754;5.994;2023-06-04T04:59:56;11.50;99.90
59128;DHT22;44912;52.754;5.994;2023-06-04T05:04:47;11.60;99.90
59128;DHT22;44912;52.754;5.994;2023-06-04T05:07:12;11.60;99.90
59128;DHT22;44912;52.754;5.994;2023-06-04T05:09:38;11.70;99.90
59128;DHT22;44912;52.754;5.994;2023-06-04T05:12:04;11.80;99.90
59128;DHT22;44912;52.754;5.994;2023-06-04T05:14:29;11.80;99.90
59128;DHT22;44912;52.754;5.994;2023-06-04T05:16:55;11.90;99.90
59128;DHT22;44912;52.754;5.994;2023-06-04T05:19:23;12.00;99.90
59128;DHT22;44912;52.754;5.994;2023-06-04T05:21:50;12.00;99.90
59128;DHT22;44912;52.754;5.994;2023-06-04T05:24:16;12.20;99.90
59128;DHT22;44912;52.754;5.994;2023-06-04T05:26:41;12.20;99.90
59128;DHT22;44912;52.754;5.994;2023-06-04T05:29:08;12.30;99.90
59128;DHT22;44912;52.754;5.994;2023-06-04T05:31:34;12.40;99.90
59128;DHT22;44912;52.754;5.994;2023-06-04T05:34:00;12.40;99.90
59128;DHT22;44912;52.754;5.994;2023-06-04T05:36:27;12.60;99.90
59128;DHT22;44912;52.754;5.994;2023-06-04T05:38:53;12.60;99.90
59128;DHT22;44912;52.754;5.994;2023-06-04T05:41:23;12.70;99.90
59128;DHT22;44912;52.754;5.994;2023-06-04T05:43:50;12.70;99.90
59128;DHT22;44912;52.754;5.994;2023-06-04T05:46:15;12.80;99.90
59128;DHT22;44912;52.754;5.994;2023-06-04T05:48:41;12.90;99.90
59128;DHT22;44912;52.754;5.994;2023-06-04T05:51:06;12.90;99.90
59128;DHT22;44912;52.754;5.994;2023-06-04T05:53:32;13.00;99.90
59128;DHT22;44912;52.754;5.994;2023-06-04T05:55:58;13.10;99.90
59128;DHT22;44912;52.754;5.994;2023-06-04T05:58:24;13.20;99.90
59128;DHT22;44912;52.754;5.994;2023-06-04T06:00:50;13.20;99.90
59128;DHT22;44912;52.754;5.994;2023-06-04T06:03:15;13.30;99.90
59128;DHT22;44912;52.754;5.994;2023-06-04T06:05:44;13.40;99.90
59128;DHT22;44912;52.754;5.994;2023-06-04T06:08:10;13.50;99.90
59128;DHT22;44912;52.754;5.994;2023-06-04T06:10:35;13.60;99.90
59128;DHT22;44912;52.754;5.994;2023-06-04T06:13:02;13.60;99.90
59128;DHT22;44912;52.754;5.994;2023-06-04T06:15:27;13.70;99.90
59128;DHT22;44912;52.754;5.994;2023-06-04T06:17:54;13.80;99.90
59128;DHT22;44912;52.754;5.994;2023-06-04T06:20:20;13.80;99.90
59128;DHT22;44912;52.754;5.994;2023-06-04T06:22:47;13.90;99.90
59128;DHT22;44912;52.754;5.994;2023-06-04T06:25:13;14.00;99.90
59128;DHT22;44912;52.754;5.994;2023-06-04T06:27:39;14.10;99.90
59128;DHT22;44912;52.754;5.994;2023-06-04T06:30:07;14.20;99.90
59128;DHT22;44912;52.754;5.994;2023-06-04T06:32:33;14.30;99.90
59128;DHT22;44912;52.754;5.994;2023-06-04T06:34:58;14.40;99.90
59128;DHT22;44912;52.754;5.994;2023-06-04T06:37:24;14.40;99.90
59128;DHT22;44912;52.754;5.994;2023-06-04T06:39:49;14.50;99.90
59128;DHT22;44912;52.754;5.994;2023-06-04T06:42:15;14.70;99.90
59128;DHT22;44912;52.754;5.994;2023-06-04T06:44:43;14.70;99.90
59128;DHT22;44912;52.754;5.994;2023-06-04T06:47:09;14.80;99.90
59128;DHT22;44912;52.754;5.994;2023-06-04T06:49:41;14.90;99.90
59128;DHT22;44912;52.754;5.994;2023-06-04T06:52:07;15.00;99.90
59128;DHT22;44912;52.754;5.994;2023-06-04T06:54:32;15.10;99.90
59128;DHT22;44912;52.754;5.994;2023-06-04T06:56:58;15.20;99.90
59128;DHT22;44912;52.754;5.994;2023-06-04T06:59:24;15.30;99.90
59128;DHT22;44912;52.754;5.994;2023-06-04T07:01:50;15.50;99.90
59128;DHT22;44912;52.754;5.994;2023-06-04T07:04:16;15.60;99.90
59128;DHT22;44912;52.754;5.994;2023-06-04T07:06:41;15.70;99.90
59128;DHT22;44912;52.754;5.994;2023-06-04T07:09:07;15.80;99.90
59128;DHT22;44912;52.754;5.994;2023-06-04T07:11:33;15.80;99.90
59128;DHT22;44912;52.754;5.994;2023-06-04T07:13:59;16.00;99.90
59128;DHT22;44912;52.754;5.994;2023-06-04T07:16:27;16.10;99.90
59128;DHT22;44912;52.754;5.994;2023-06-04T07:18:52;16.10;99.90
59128;DHT22;44912;52.754;5.994;2023-06-04T07:21:18;16.30;99.90
59128;DHT22;44912;52.754;5.994;2023-06-04T07:23:46;16.40;99.90
59128;DHT22;44912;52.754;5.994;2023-06-04T07:26:15;16.50;99.90
59128;DHT22;44912;52.754;5.994;2023-06-04T07:28:41;16.60;99.90
59128;DHT22;44912;52.754;5.994;2023-06-04T07:31:07;16.70;99.90
59128;DHT22;44912;52.754;5.994;2023-06-04T07:33:32;16.80;99.90
59128;DHT22;44912;52.754;5.994;2023-06-04T07:35:58;16.90;99.90
59128;DHT22;44912;52.754;5.994;2023-06-04T07:38:24;17.10;99.90
59128;DHT22;44912;52.754;5.994;2023-06-04T07:40:50;17.20;99.90
59128;DHT22;44912;52.754;5.994;2023-06-04T07:43:15;17.30;99.90
59128;DHT22;44912;52.754;5.994;2023-06-04T07:45:41;17.40;99.90
59128;DHT22;44912;52.754;5.994;2023-06-04T07:48:09;17.50;99.90
59128;DHT22;44912;52.754;5.994;2023-06-04T07:50:35;17.60;99.90
59128;DHT22;44912;52.754;5.994;2023-06-04T07:53:00;17.60;99.90
59128;DHT22;44912;52.754;5.994;2023-06-04T07:55:26;17.70;99.90
59128;DHT22;44912;52.754;5.994;2023-06-04T07:57:51;17.80;99.90
59128;DHT22;44912;52.754;5.994;2023-06-04T08:00:17;17.90;99.90
59128;DHT22;44912;52.754;5.994;2023-06-04T08:02:43;18.10;99.90
59128;DHT22;44912;52.754;5.994;2023-06-04T08:05:08;18.20;99.90
59128;DHT22;44912;52.754;5.994;2023-06-04T08:07:34;18.40;99.90
59128;DHT22;44912;52.754;5.994;2023-06-04T08:09:59;18.50;99.90
59128;DHT22;44912;52.754;5.994;2023-06-04T08:12:25;18.70;99.90
59128;DHT22;44912;52.754;5.994;2023-06-04T08:14:51;18.80;99.90
59128;DHT22;44912;52.754;5.994;2023-06-04T08:17:16;19.00;99.90
59128;DHT22;44912;52.754;5.994;2023-06-04T08:19:42;19.10;99.90
59128;DHT22;44912;52.754;5.994;2023-06-04T08:22:07;19.30;99.90
59128;DHT22;44912;52.754;5.994;2023-06-04T08:24:36;19.40;99.90
59128;DHT22;44912;52.754;5.994;2023-06-04T08:27:02;19.40;99.90
59128;DHT22;44912;52.754;5.994;2023-06-04T08:29:27;19.40;99.90
59128;DHT22;44912;52.754;5.994;2023-06-04T08:31:53;19.50;99.90
59128;DHT22;44912;52.754;5.994;2023-06-04T08:34:18;19.60;99.90
59128;DHT22;44912;52.754;5.994;2023-06-04T08:36:44;19.80;99.90
59128;DHT22;44912;52.754;5.994;2023-06-04T08:39:09;20.00;99.90
59128;DHT22;44912;52.754;5.994;2023-06-04T08:41:43;20.30;99.90
59128;DHT22;44912;52.754;5.994;2023-06-04T08:44:10;20.40;99.90
59128;DHT22;44912;52.754;5.994;2023-06-04T08:46:39;20.50;99.90
59128;DHT22;44912;52.754;5.994;2023-06-04T08:49:07;20.70;99.90
59128;DHT22;44912;52.754;5.994;2023-06-04T08:51:35;20.70;99.90
59128;DHT22;44912;52.754;5.994;2023-06-04T08:54:06;20.80;99.90
59128;DHT22;44912;52.754;5.994;2023-06-04T08:56:33;20.80;99.90
59128;DHT22;44912;52.754;5.994;2023-06-04T08:59:06;20.90;99.90
59128;DHT22;44912;52.754;5.994;2023-06-04T09:01:34;21.10;99.90
59128;DHT22;44912;52.754;5.994;2023-06-04T09:04:01;21.10;99.90
59128;DHT22;44912;52.754;5.994;2023-06-04T09:06:29;21.10;99.90
59128;DHT22;44912;52.754;5.994;2023-06-04T09:08:56;21.20;99.90
59128;DHT22;44912;52.754;5.994;2023-06-04T09:11:33;21.30;99.90
59128;DHT22;44912;52.754;5.994;2023-06-04T09:14:01;21.30;99.90
59128;DHT22;44912;52.754;5.994;2023-06-04T09:16:29;21.30;99.90
59128;DHT22;44912;52.754;5.994;2023-06-04T09:19:02;21.50;99.90
59128;DHT22;44912;52.754;5.994;2023-06-04T09:21:27;21.70;99.90
59128;DHT22;44912;52.754;5.994;2023-06-04T09:23:53;21.80;99.90
59128;DHT22;44912;52.754;5.994;2023-06-04T09:26:19;21.90;99.90
59128;DHT22;44912;52.754;5.994;2023-06-04T09:28:45;21.90;99.90
59128;DHT22;44912;52.754;5.994;2023-06-04T09:31:15;22.00;99.90
59128;DHT22;44912;52.754;5.994;2023-06-04T09:33:44;22.20;99.90
59128;DHT22;44912;52.754;5.994;2023-06-04T09:36:10;22.20;99.90
59128;DHT22;44912;52.754;5.994;2023-06-04T09:38:36;22.30;99.90
59128;DHT22;44912;52.754;5.994;2023-06-04T09:41:02;22.50;99.90
59128;DHT22;44912;52.754;5.994;2023-06-04T09:43:31;22.50;99.90
59128;DHT22;44912;52.754;5.994;2023-06-04T09:46:09;22.20;99.90
59128;DHT22;44912;52.754;5.994;2023-06-04T09:48:35;22.10;99.90
59128;DHT22;44912;52.754;5.994;2023-06-04T09:51:11;22.30;99.90
59128;DHT22;44912;52.754;5.994;2023-06-04T09:53:38;22.60;99.90
59128;DHT22;44912;52.754;5.994;2023-06-04T09:56:04;22.60;99.90
59128;DHT22;44912;52.754;5.994;2023-06-04T09:58:32;22.80;99.90
59128;DHT22;44912;52.754;5.994;2023-06-04T10:00:59;22.80;99.90
59128;DHT22;44912;52.754;5.994;2023-06-04T10:03:25;22.70;99.90
59128;DHT22;44912;52.754;5.994;2023-06-04T10:05:53;22.50;99.90
59128;DHT22;44912;52.754;5.994;2023-06-04T10:08:22;22.40;99.90
59128;DHT22;44912;52.754;5.994;2023-06-04T10:10:50;22.60;99.90
59128;DHT22;44912;52.754;5.994;2023-06-04T10:13:18;22.90;99.90
59128;DHT22;44912;52.754;5.994;2023-06-04T10:15:48;23.00;99.90
59128;DHT22;44912;52.754;5.994;2023-06-04T10:18:15;23.10;99.90
59128;DHT22;44912;52.754;5.994;2023-06-04T10:20:41;22.90;99.90
59128;DHT22;44912;52.754;5.994;2023-06-04T10:23:07;22.90;99.90
59128;DHT22;44912;52.754;5.994;2023-06-04T10:25:35;23.10;99.90
59128;DHT22;44912;52.754;5.994;2023-06-04T10:28:04;23.20;99.90
59128;DHT22;44912;52.754;5.994;2023-06-04T10:30:31;23.20;99.90
59128;DHT22;44912;52.754;5.994;2023-06-04T10:32:57;23.40;99.90
59128;DHT22;44912;52.754;5.994;2023-06-04T10:35:36;23.60;99.90
59128;DHT22;44912;52.754;5.994;2023-06-04T10:38:09;23.90;99.90
59128;DHT22;44912;52.754;5.994;2023-06-04T10:40:36;24.20;99.90
59128;DHT22;44912;52.754;5.994;2023-06-04T10:43:10;24.00;99.90
59128;DHT22;44912;52.754;5.994;2023-06-04T10:45:36;23.90;99.90
59128;DHT22;44912;52.754;5.994;2023-06-04T10:48:03;24.20;99.90
59128;DHT22;44912;52.754;5.994;2023-06-04T10:50:30;24.30;99.90
59128;DHT22;44912;52.754;5.994;2023-06-04T10:52:56;24.50;99.90
59128;DHT22;44912;52.754;5.994;2023-06-04T10:55:29;24.40;99.90
59128;DHT22;44912;52.754;5.994;2023-06-04T10:57:56;24.40;99.90
59128;DHT22;44912;52.754;5.994;2023-06-04T11:00:22;24.40;99.90
59128;DHT22;44912;52.754;5.994;2023-06-04T11:02:54;24.50;99.90
59128;DHT22;44912;52.754;5.994;2023-06-04T11:05:21;24.40;99.90
59128;DHT22;44912;52.754;5.994;2023-06-04T11:07:48;24.40;99.90
59128;DHT22;44912;52.754;5.994;2023-06-04T11:10:15;24.50;99.90
59128;DHT22;44912;52.754;5.994;2023-06-04T11:12:46;24.60;99.90
59128;DHT22;44912;52.754;5.994;2023-06-04T11:15:12;24.70;99.90
59128;DHT22;44912;52.754;5.994;2023-06-04T11:17:38;24.70;99.90
59128;DHT22;44912;52.754;5.994;2023-06-04T11:20:03;24.70;99.90
59128;DHT22;44912;52.754;5.994;2023-06-04T11:22:32;24.90;99.90
59128;DHT22;44912;52.754;5.994;2023-06-04T11:24:59;25.10;99.90
59128;DHT22;44912;52.754;5.994;2023-06-04T11:27:24;25.20;99.90
59128;DHT22;44912;52.754;5.994;2023-06-04T11:29:51;25.30;99.90
59128;DHT22;44912;52.754;5.994;2023-06-04T11:32:26;25.20;99.90
59128;DHT22;44912;52.754;5.994;2023-06-04T11:34:51;25.20;99.90
59128;DHT22;44912;52.754;5.994;2023-06-04T11:37:26;25.20;99.90
59128;DHT22;44912;52.754;5.994;2023-06-04T11:39:55;25.40;99.90
59128;DHT22;44912;52.754;5.994;2023-06-04T11:42:21;25.50;99.90
59128;DHT22;44912;52.754;5.994;2023-06-04T11:44:47;25.50;99.90
59128;DHT22;44912;52.754;5.994;2023-06-04T11:47:14;25.40;98.20
59128;DHT22;44912;52.754;5.994;2023-06-04T11:49:40;25.50;99.10
59128;DHT22;44912;52.754;5.994;2023-06-04T11:52:08;25.60;99.50
59128;DHT22;44912;52.754;5.994;2023-06-04T11:54:34;25.70;99.00
59128;DHT22;44912;52.754;5.994;2023-06-04T11:57:04;25.60;97.00
59128;DHT22;44912;52.754;5.994;2023-06-04T11:59:30;25.30;97.10
59128;DHT22;44912;52.754;5.994;2023-06-04T12:01:56;24.70;93.90
59128;DHT22;44912;52.754;5.994;2023-06-04T12:04:22;24.30;95.90
59128;DHT22;44912;52.754;5.994;2023-06-04T12:06:52;24.40;98.50
59128;DHT22;44912;52.754;5.994;2023-06-04T12:09:30;24.70;95.40
59128;DHT22;44912;52.754;5.994;2023-06-04T12:12:05;24.80;98.20
59128;DHT22;44912;52.754;5.994;2023-06-04T12:14:31;25.10;98.40
59128;DHT22;44912;52.754;5.994;2023-06-04T12:16:58;25.20;98.50
59128;DHT22;44912;52.754;5.994;2023-06-04T12:19:24;25.30;95.60
59128;DHT22;44912;52.754;5.994;2023-06-04T12:22:05;25.00;94.90
59128;DHT22;44912;52.754;5.994;2023-06-04T12:24:32;24.80;95.90
59128;DHT22;44912;52.754;5.994;2023-06-04T12:27:05;24.90;97.30
59128;DHT22;44912;52.754;5.994;2023-06-04T12:29:32;25.10;97.80
59128;DHT22;44912;52.754;5.994;2023-06-04T12:32:08;25.40;97.70
59128;DHT22;44912;52.754;5.994;2023-06-04T12:34:38;25.60;97.90
59128;DHT22;44912;52.754;5.994;2023-06-04T12:37:04;25.80;98.10
59128;DHT22;44912;52.754;5.994;2023-06-04T12:39:32;26.00;98.20
59128;DHT22;44912;52.754;5.994;2023-06-04T12:41:57;26.20;98.00
59128;DHT22;44912;52.754;5.994;2023-06-04T12:44:23;26.30;98.00
59128;DHT22;44912;52.754;5.994;2023-06-04T12:46:50;26.40;96.10
59128;DHT22;44912;52.754;5.994;2023-06-04T12:49:15;26.50;96.10
59128;DHT22;44912;52.754;5.994;2023-06-04T12:51:41;26.40;96.00
59128;DHT22;44912;52.754;5.994;2023-06-04T12:54:07;26.30;95.60
59128;DHT22;44912;52.754;5.994;2023-06-04T12:56:32;26.40;96.30
59128;DHT22;44912;52.754;5.994;2023-06-04T12:58:58;26.30;94.50
59128;DHT22;44912;52.754;5.994;2023-06-04T13:01:24;26.00;93.10
59128;DHT22;44912;52.754;5.994;2023-06-04T13:03:50;25.80;94.90
59128;DHT22;44912;52.754;5.994;2023-06-04T13:06:16;25.70;93.70
59128;DHT22;44912;52.754;5.994;2023-06-04T13:08:41;25.60;96.10
59128;DHT22;44912;52.754;5.994;2023-06-04T13:11:08;25.80;96.60
59128;DHT22;44912;52.754;5.994;2023-06-04T13:13:35;25.90;96.40
59128;DHT22;44912;52.754;5.994;2023-06-04T13:16:01;25.90;95.50
59128;DHT22;44912;52.754;5.994;2023-06-04T13:18:26;26.00;96.80
59128;DHT22;44912;52.754;5.994;2023-06-04T13:20:52;26.00;96.70
59128;DHT22;44912;52.754;5.994;2023-06-04T13:23:17;26.10;95.20
59128;DHT22;44912;52.754;5.994;2023-06-04T13:25:43;26.00;94.00
59128;DHT22;44912;52.754;5.994;2023-06-04T13:28:09;25.90;95.10
59128;DHT22;44912;52.754;5.994;2023-06-04T13:30:35;26.00;96.10
59128;DHT22;44912;52.754;5.994;2023-06-04T13:33:02;26.20;96.80
59128;DHT22;44912;52.754;5.994;2023-06-04T13:35:28;26.30;96.00
59128;DHT22;44912;52.754;5.994;2023-06-04T13:37:53;26.30;96.10
59128;DHT22;44912;52.754;5.994;2023-06-04T13:40:19;26.60;96.20
59128;DHT22;44912;52.754;5.994;2023-06-04T13:42:45;26.60;96.20
59128;DHT22;44912;52.754;5.994;2023-06-04T13:45:11;26.70;95.80
59128;DHT22;44912;52.754;5.994;2023-06-04T13:47:37;26.50;95.80
59128;DHT22;44912;52.754;5.994;2023-06-04T13:50:02;26.60;95.50
59128;DHT22;44912;52.754;5.994;2023-06-04T13:52:29;26.60;95.50
59128;DHT22;44912;52.754;5.994;2023-06-04T13:54:55;26.60;95.20
59128;DHT22;44912;52.754;5.994;2023-06-04T13:57:21;26.60;94.30
59128;DHT22;44912;52.754;5.994;2023-06-04T13:59:46;26.50;94.50
59128;DHT22;44912;52.754;5.994;2023-06-04T14:02:12;26.40;94.10
59128;DHT22;44912;52.754;5.994;2023-06-04T14:04:37;26.00;93.20
59128;DHT22;44912;52.754;5.994;2023-06-04T14:07:03;25.80;94.90
59128;DHT22;44912;52.754;5.994;2023-06-04T14:09:29;25.80;94.90
59128;DHT22;44912;52.754;5.994;2023-06-04T14:11:54;25.70;95.40
59128;DHT22;44912;52.754;5.994;2023-06-04T14:14:20;25.70;95.60
59128;DHT22;44912;52.754;5.994;2023-06-04T14:16:47;25.40;94.70
59128;DHT22;44912;52.754;5.994;2023-06-04T14:19:13;25.40;95.90
59128;DHT22;44912;52.754;5.994;2023-06-04T14:21:38;25.40;95.00
59128;DHT22;44912;52.754;5.994;2023-06-04T14:24:04;25.20;94.30
59128;DHT22;44912;52.754;5.994;2023-06-04T14:26:30;24.80;95.60
59128;DHT22;44912;52.754;5.994;2023-06-04T14:28:56;24.70;96.30
59128;DHT22;44912;52.754;5.994;2023-06-04T14:31:21;24.80;97.30
59128;DHT22;44912;52.754;5.994;2023-06-04T14:33:47;25.00;97.40
59128;DHT22;44912;52.754;5.994;2023-06-04T14:36:13;25.10;97.20
59128;DHT22;44912;52.754;5.994;2023-06-04T14:38:38;25.30;98.20
59128;DHT22;44912;52.754;5.994;2023-06-04T14:41:04;25.30;98.50
59128;DHT22;44912;52.754;5.994;2023-06-04T14:43:30;25.40;97.70
59128;DHT22;44912;52.754;5.994;2023-06-04T14:45:55;25.30;97.70
59128;DHT22;44912;52.754;5.994;2023-06-04T14:48:21;25.40;97.40
59128;DHT22;44912;52.754;5.994;2023-06-04T14:50:47;25.50;97.20
59128;DHT22;44912;52.754;5.994;2023-06-04T14:53:13;25.40;97.20
59128;DHT22;44912;52.754;5.994;2023-06-04T14:55:39;25.40;97.30
59128;DHT22;44912;52.754;5.994;2023-06-04T14:58:05;25.40;97.10
59128;DHT22;44912;52.754;5.994;2023-06-04T15:00:31;25.40;96.80
59128;DHT22;44912;52.754;5.994;2023-06-04T15:02:57;25.30;97.20
59128;DHT22;44912;52.754;5.994;2023-06-04T15:05:23;25.30;97.00
59128;DHT22;44912;52.754;5.994;2023-06-04T15:07:48;25.30;97.70
59128;DHT22;44912;52.754;5.994;2023-06-04T15:10:14;25.40;98.10
59128;DHT22;44912;52.754;5.994;2023-06-04T15:12:39;25.40;99.20
59128;DHT22;44912;52.754;5.994;2023-06-04T15:15:06;25.40;99.30
59128;DHT22;44912;52.754;5.994;2023-06-04T15:17:33;25.50;98.80
59128;DHT22;44912;52.754;5.994;2023-06-04T15:19:59;25.40;98.40
59128;DHT22;44912;52.754;5.994;2023-06-04T15:22:25;25.40;98.20
59128;DHT22;44912;52.754;5.994;2023-06-04T15:24:51;25.30;98.50
59128;DHT22;44912;52.754;5.994;2023-06-04T15:27:16;25.40;98.20
59128;DHT22;44912;52.754;5.994;2023-06-04T15:29:43;25.30;98.50